Ashley, Michigan
Current Conditions -  °F | °C
As of 6:54 PM on Friday 24 Oct 2014 (Local Time) from KAMN Reporting Station
Clear Clear  
Wind Chill: 55°   Ceiling: Unl
Heat Index: 55°   Visibility: 7mi
Dew Point: 48°   Wind: 5mph
Humidity: 79%   Direction: 250°WSW
Pressure: 29.97"   Gusts: NA
Location:  43.19°N, 84.47°W
Report Text: KAMN 242254Z AUTO 25004KT 7SM CLR 13/09 A2997 RMK AO2 T01260091
Loading
Personal Weather Stations






























Interactive Weather Map
Tropical Storm Tracking
New forecast layout! Learn more

10-Day Weather Forecast

Advertisements
Track Severe Weather on mobile